Time;durP1;ratioP1;P1;durP2;ratioP2;P2;SDS_P1;SDS_P2;PMS_P1;PMS_P2;Temp;Humidity;BMP_temperature;BMP_pressure;BME280_temperature;BME280_humidity;BME280_pressure;Samples;Min_cycle;Max_cycle;Signal;HPM_P1;HPM_P2
2023/08/25 00:02:00;;;;;;;10.80;6.13;;;;;18.70;100393.00;;;;10090288;28;20802;-77
2023/08/25 00:07:02;;;;;;;10.38;6.13;;;;;18.60;100392.00;;;;10059711;28;20221;-78
2023/08/25 00:12:03;;;;;;;7.18;6.20;;;;;18.60;100398.00;;;;10088025;28;20340;-77
2023/08/25 00:17:05;;;;;;;8.35;6.28;;;;;18.50;100407.00;;;;10082589;28;20452;-77
2023/08/25 00:22:07;;;;;;;10.43;6.55;;;;;18.40;100399.00;;;;10075622;28;20218;-78
2023/08/25 00:27:08;;;;;;;13.88;6.72;;;;;18.40;100391.00;;;;10070210;28;20827;-77
2023/08/25 00:32:10;;;;;;;12.02;7.20;;;;;18.40;100391.00;;;;10051256;28;20238;-76
2023/08/25 00:37:12;;;;;;;9.40;7.72;;;;;18.40;100379.00;;;;10068155;28;20210;-77
2023/08/25 00:42:14;;;;;;;8.90;7.10;;;;;18.40;100367.00;;;;10068486;28;20340;-77
2023/08/25 00:47:15;;;;;;;9.07;7.70;;;;;18.40;100361.00;;;;10088687;28;20404;-78
2023/08/25 00:52:18;;;;;;;10.05;7.28;;;;;18.40;100369.00;;;;10066768;28;20293;-76
2023/08/25 00:57:22;;;;;;;10.07;6.97;;;;;18.30;100373.00;;;;10069027;28;20980;-77
2023/08/25 01:02:24;;;;;;;9.73;7.47;;;;;18.30;100373.00;;;;10059253;28;20214;-78
2023/08/25 01:07:25;;;;;;;11.63;7.75;;;;;18.30;100376.00;;;;10091924;28;20586;-78
2023/08/25 01:12:40;;;;;;;11.40;7.75;;;;;18.30;100367.00;;;;10091764;28;20218;-77
2023/08/25 01:17:50;;;;;;;7.82;5.88;;;;;18.20;100369.00;;;;10087717;28;20226;-76
2023/08/25 01:23:49;;;;;;;10.90;6.90;;;;;18.20;100369.00;;;;10090124;28;20293;-77
2023/08/25 01:28:51;;;;;;;8.77;6.00;;;;;18.10;100371.00;;;;9942871;29;20213;-77
2023/08/25 01:33:53;;;;;;;8.40;5.97;;;;;18.10;100363.00;;;;10049177;28;20356;-77
2023/08/25 01:39:06;;;;;;;10.73;6.55;;;;;18.00;100360.00;;;;10071977;28;20226;-77
2023/08/25 01:44:11;;;;;;;13.13;6.75;;;;;18.00;100353.00;;;;10071845;28;20214;-78
2023/08/25 01:49:14;;;;;;;8.10;5.90;;;;;18.00;100353.00;;;;10093069;28;20214;-77
2023/08/25 01:54:15;;;;;;;10.02;6.25;;;;;18.00;100343.00;;;;10110968;28;20268;-77
2023/08/25 01:59:16;;;;;;;11.38;5.95;;;;;18.00;100344.00;;;;10064326;28;20241;-77
2023/08/25 02:04:18;;;;;;;10.63;6.25;;;;;18.00;100333.00;;;;10067619;28;21893;-77
2023/08/25 02:09:20;;;;;;;10.05;6.15;;;;;18.00;100335.00;;;;10067885;28;20225;-77
2023/08/25 02:14:21;;;;;;;11.85;6.10;;;;;18.00;100326.00;;;;10089020;28;20210;-76
2023/08/25 02:19:23;;;;;;;12.82;6.32;;;;;18.00;100324.00;;;;10086348;28;20226;-77
2023/08/25 02:24:30;;;;;;;11.85;6.85;;;;;18.00;100318.00;;;;10074694;28;20202;-77
2023/08/25 02:29:31;;;;;;;16.17;6.53;;;;;17.90;100307.00;;;;10096693;28;20222;-77
2023/08/25 02:34:33;;;;;;;13.77;6.30;;;;;17.80;100303.00;;;;10092134;28;20258;-77
2023/08/25 02:39:35;;;;;;;13.75;6.43;;;;;17.80;100297.00;;;;10071632;28;20236;-77
2023/08/25 02:44:37;;;;;;;13.98;6.88;;;;;17.70;100287.00;;;;10056426;28;20704;-76
2023/08/25 02:49:39;;;;;;;14.60;6.40;;;;;17.70;100276.00;;;;10064147;28;20266;-77
2023/08/25 02:54:40;;;;;;;14.55;6.63;;;;;17.60;100275.00;;;;10067046;28;21392;-78
2023/08/25 02:59:42;;;;;;;11.77;6.45;;;;;17.60;100279.00;;;;10093773;28;20225;-78
2023/08/25 03:04:43;;;;;;;11.25;6.53;;;;;17.70;100272.00;;;;10065130;28;21720;-77
2023/08/25 03:09:45;;;;;;;11.07;6.50;;;;;17.70;100269.00;;;;10069662;28;20262;-76
2023/08/25 03:14:46;;;;;;;14.68;6.47;;;;;17.80;100259.00;;;;10069008;28;20306;-77
2023/08/25 03:19:49;;;;;;;13.63;5.82;;;;;17.80;100267.00;;;;10072440;28;20232;-79
2023/08/25 03:24:50;;;;;;;20.00;7.63;;;;;17.90;100260.00;;;;10068973;28;20214;-78
2023/08/25 03:29:51;;;;;;;12.50;7.18;;;;;18.00;100263.00;;;;10095365;28;20225;-77
2023/08/25 03:34:53;;;;;;;13.55;7.75;;;;;18.10;100252.00;;;;10087192;28;20210;-78
2023/08/25 03:39:54;;;;;;;19.98;8.65;;;;;18.20;100250.00;;;;10089622;28;20222;-77
2023/08/25 03:44:56;;;;;;;14.80;7.13;;;;;18.30;100242.00;;;;10143430;28;20207;-78
2023/08/25 03:49:57;;;;;;;16.50;7.85;;;;;18.30;100248.00;;;;10099515;28;20268;-77
2023/08/25 03:54:59;;;;;;;18.73;7.68;;;;;18.40;100242.00;;;;10099269;28;20238;-78
2023/08/25 04:00:01;;;;;;;12.93;7.30;;;;;18.40;100244.00;;;;10091387;28;21180;-77
2023/08/25 04:05:03;;;;;;;12.07;7.53;;;;;18.40;100239.00;;;;10064350;28;20351;-76
2023/08/25 04:10:05;;;;;;;13.85;7.50;;;;;18.50;100236.00;;;;10069995;28;20581;-78
2023/08/25 04:15:07;;;;;;;17.92;7.72;;;;;18.60;100228.00;;;;10068562;28;20508;-78
2023/08/25 04:20:11;;;;;;;15.85;6.90;;;;;18.60;100234.00;;;;10068334;28;20234;-78
2023/08/25 04:25:13;;;;;;;14.40;6.60;;;;;18.60;100240.00;;;;10067278;28;21164;-77
2023/08/25 04:30:14;;;;;;;17.10;7.78;;;;;18.70;100241.00;;;;10063151;28;20397;-77
2023/08/25 04:35:16;;;;;;;17.30;7.93;;;;;18.70;100246.00;;;;10068645;28;20210;-79
2023/08/25 04:40:18;;;;;;;11.65;6.90;;;;;18.80;100239.00;;;;10098855;28;20229;-78
2023/08/25 04:45:21;;;;;;;13.13;6.93;;;;;18.80;100219.00;;;;10080594;28;20221;-77
2023/08/25 04:50:22;;;;;;;13.07;6.97;;;;;18.90;100224.00;;;;10089963;28;20210;-78
2023/08/25 04:55:23;;;;;;;16.63;7.57;;;;;19.00;100231.00;;;;10126917;28;20202;-78
2023/08/25 05:00:25;;;;;;;15.65;7.55;;;;;19.30;100205.00;;;;10105084;28;20279;-77
2023/08/25 05:05:27;;;;;;;11.20;6.53;;;;;19.30;100204.00;;;;10106370;28;20217;-78
2023/08/25 05:10:31;;;;;;;15.85;7.28;;;;;19.30;100203.00;;;;10110345;28;20372;-78
2023/08/25 05:15:33;;;;;;;12.00;6.55;;;;;19.40;100197.00;;;;10148626;28;20233;-79
2023/08/25 05:20:34;;;;;;;14.07;7.57;;;;;19.30;100158.00;;;;10094244;28;21911;-78
2023/08/25 05:25:37;;;;;;;20.60;8.45;;;;;19.10;100193.00;;;;10081842;28;21819;-78
2023/08/25 05:30:38;;;;;;;13.32;7.13;;;;;19.00;100213.00;;;;10097045;28;20814;-77
2023/08/25 05:35:40;;;;;;;14.73;7.47;;;;;18.80;100223.00;;;;10098031;28;20305;-78
2023/08/25 05:40:44;;;;;;;13.15;6.93;;;;;18.70;100188.00;;;;10091937;28;20764;-78
2023/08/25 05:45:45;;;;;;;27.95;9.35;;;;;18.60;100189.00;;;;10145881;28;20210;-78
2023/08/25 05:50:47;;;;;;;16.40;8.43;;;;;18.30;100199.00;;;;10110272;28;20222;-79
2023/08/25 05:55:49;;;;;;;19.88;8.90;;;;;18.30;100186.00;;;;10085020;28;20340;-78
2023/08/25 06:00:51;;;;;;;18.48;9.10;;;;;18.20;100229.00;;;;10097322;28;20226;-78
2023/08/25 06:05:53;;;;;;;22.52;10.45;;;;;18.30;100223.00;;;;10124738;28;20309;-78
2023/08/25 06:10:55;;;;;;;27.15;11.10;;;;;18.30;100233.00;;;;10113799;28;21171;-78
2023/08/25 06:15:56;;;;;;;24.88;11.77;;;;;18.40;100255.00;;;;10103574;28;20298;-77
2023/08/25 06:20:58;;;;;;;23.48;12.07;;;;;18.50;100249.00;;;;10091398;28;20249;-77
2023/08/25 06:25:59;;;;;;;19.85;12.88;;;;;18.50;100263.00;;;;10095660;28;20218;-77
2023/08/25 06:31:01;;;;;;;25.60;13.85;;;;;18.60;100248.00;;;;10091217;28;20890;-77
2023/08/25 06:36:02;;;;;;;26.00;15.15;;;;;18.70;100239.00;;;;10087191;28;22587;-76
2023/08/25 06:41:04;;;;;;;23.25;15.00;;;;;18.90;100218.00;;;;10069340;28;20621;-77
2023/08/25 06:46:05;;;;;;;22.75;15.77;;;;;19.40;100226.00;;;;10054464;28;20210;-77
2023/08/25 06:51:07;;;;;;;23.23;16.02;;;;;19.70;100203.00;;;;10094125;28;20298;-76
2023/08/25 06:56:09;;;;;;;19.42;14.52;;;;;19.90;100212.00;;;;10065996;28;21331;-77
2023/08/25 07:01:11;;;;;;;22.63;16.77;;;;;20.40;100187.00;;;;10080757;28;20513;-77
2023/08/25 07:06:12;;;;;;;17.80;15.82;;;;;20.30;100180.00;;;;10043918;28;20253;-77
2023/08/25 07:11:14;;;;;;;20.92;15.10;;;;;20.00;100191.00;;;;10088791;28;20470;-77
2023/08/25 07:16:15;;;;;;;19.83;15.95;;;;;19.70;100197.00;;;;10063978;28;20794;-77
2023/08/25 07:21:16;;;;;;;16.02;14.43;;;;;19.60;100199.00;;;;10085290;28;20278;-76
2023/08/25 07:26:18;;;;;;;22.83;15.95;;;;;19.40;100203.00;;;;10093973;28;20756;-76
2023/08/25 07:31:19;;;;;;;16.80;14.75;;;;;19.30;100210.00;;;;10065889;28;20218;-76
2023/08/25 07:36:20;;;;;;;27.92;17.17;;;;;19.20;100247.00;;;;10045713;28;20339;-78
2023/08/25 07:41:22;;;;;;;26.88;17.38;;;;;19.10;100288.00;;;;10067571;28;20657;-78
2023/08/25 07:46:24;;;;;;;24.00;18.80;;;;;19.10;100267.00;;;;10056648;28;20276;-77
2023/08/25 07:51:25;;;;;;;24.88;19.52;;;;;19.10;100293.00;;;;10093803;28;20274;-77
2023/08/25 07:56:41;;;;;;;24.83;20.58;;;;;19.20;100254.00;;;;10070678;28;20234;-77
2023/08/25 08:01:43;;;;;;;25.67;20.25;;;;;19.30;100204.00;;;;10084046;28;20224;-78
2023/08/25 08:06:44;;;;;;;26.15;20.30;;;;;19.20;100233.00;;;;10080760;28;20249;-77
2023/08/25 08:11:46;;;;;;;38.30;22.95;;;;;19.20;100250.00;;;;10061195;28;20206;-77
2023/08/25 08:16:47;;;;;;;26.02;21.05;;;;;19.30;100231.00;;;;10065198;28;20285;-77
2023/08/25 08:21:49;;;;;;;39.75;21.10;;;;;19.50;100242.00;;;;10048638;28;20317;-76
2023/08/25 08:26:50;;;;;;;36.75;22.60;;;;;19.70;100251.00;;;;10079440;28;20302;-77
2023/08/25 08:31:51;;;;;;;23.55;18.33;;;;;19.80;100221.00;;;;10066176;28;20305;-77
2023/08/25 08:36:52;;;;;;;22.42;18.33;;;;;19.80;100231.00;;;;10068366;28;20214;-77
2023/08/25 08:41:54;;;;;;;27.00;19.80;;;;;19.70;100236.00;;;;10081429;28;21641;-77
2023/08/25 08:46:59;;;;;;;33.30;19.65;;;;;19.90;100231.00;;;;10088419;28;20245;-76
2023/08/25 08:52:01;;;;;;;28.67;20.17;;;;;20.50;100230.00;;;;10069785;28;20810;-77
2023/08/25 08:57:04;;;;;;;29.73;23.05;;;;;21.40;100210.00;;;;10088283;28;21023;-77
2023/08/25 09:02:07;;;;;;;24.92;17.85;;;;;21.60;100238.00;;;;10068922;28;20230;-77
2023/08/25 09:07:10;;;;;;;22.48;16.48;;;;;21.90;100234.00;;;;10090459;28;20226;-77
2023/08/25 09:12:13;;;;;;;28.75;17.25;;;;;21.60;100242.00;;;;10067007;28;20581;-77
2023/08/25 09:17:15;;;;;;;21.08;16.83;;;;;21.60;100239.00;;;;10087253;28;20214;-78
2023/08/25 09:22:17;;;;;;;20.23;17.25;;;;;21.30;100257.00;;;;10062542;28;20802;-77
2023/08/25 09:27:26;;;;;;;28.52;20.23;;;;;21.30;100262.00;;;;10101020;28;20225;-77
2023/08/25 09:32:28;;;;;;;19.60;17.67;;;;;21.50;100253.00;;;;10070571;28;20206;-77
2023/08/25 09:37:40;;;;;;;26.60;18.80;;;;;22.00;100257.00;;;;10109524;28;21427;-77
2023/08/25 09:42:42;;;;;;;24.15;20.83;;;;;22.20;100262.00;;;;10095949;28;21168;-78
2023/08/25 09:47:43;;;;;;;26.80;21.10;;;;;22.10;100284.00;;;;10088764;28;20289;-77
2023/08/25 09:52:47;;;;;;;24.80;22.27;;;;;21.70;100288.00;;;;10068175;28;20278;-77
2023/08/25 09:57:49;;;;;;;25.25;22.20;;;;;21.30;100294.00;;;;10112340;28;20214;-77
2023/08/25 10:02:53;;;;;;;26.25;23.25;;;;;21.10;100303.00;;;;10065801;28;20293;-77
2023/08/25 10:07:54;;;;;;;27.50;22.10;;;;;21.20;100288.00;;;;10072096;28;20706;-78
2023/08/25 10:12:57;;;;;;;33.05;24.58;;;;;20.90;100298.00;;;;10109258;28;21456;-77
2023/08/25 10:18:06;;;;;;;36.08;27.83;;;;;20.80;100306.00;;;;10071692;28;20222;-77
2023/08/25 10:23:09;;;;;;;34.75;27.83;;;;;20.80;100286.00;;;;10086765;28;20479;-77
2023/08/25 10:28:11;;;;;;;45.10;29.90;;;;;20.80;100291.00;;;;10054245;28;20276;-78
2023/08/25 10:33:12;;;;;;;55.42;35.65;;;;;20.70;100292.00;;;;10083309;28;20216;-78
2023/08/25 10:38:20;;;;;;;44.50;34.08;;;;;20.50;100281.00;;;;10065481;28;20222;-77
2023/08/25 10:43:31;;;;;;;49.67;33.40;;;;;20.40;100288.00;;;;10065100;28;20210;-79
2023/08/25 10:48:37;;;;;;;48.65;36.28;;;;;20.30;100309.00;;;;10094157;28;20675;-78
2023/08/25 10:53:46;;;;;;;44.53;33.05;;;;;20.00;100306.00;;;;10074327;28;20735;-78
2023/08/25 10:59:06;;;;;;;53.42;37.10;;;;;19.90;100276.00;;;;10073010;28;21080;-78
2023/08/25 11:04:12;;;;;;;53.28;34.95;;;;;19.90;100260.00;;;;10088787;28;20216;-78
2023/08/25 11:09:20;;;;;;;86.07;45.45;;;;;20.10;100256.00;;;;10063643;28;20262;-78
2023/08/25 11:14:29;;;;;;;92.82;48.08;;;;;20.70;100287.00;;;;10073422;28;20212;-78
2023/08/25 11:19:32;;;;;;;129.43;55.85;;;;;21.90;100234.00;;;;10074724;28;21895;-77
2023/08/25 11:24:33;;;;;;;105.97;52.70;;;;;22.60;100262.00;;;;10065420;28;20213;-77
2023/08/25 11:29:35;;;;;;;85.32;49.55;;;;;22.40;100285.00;;;;10081800;28;20202;-78
2023/08/25 11:34:36;;;;;;;104.18;51.40;;;;;23.00;100288.00;;;;10069745;28;21030;-78
2023/08/25 11:39:44;;;;;;;71.75;44.60;;;;;23.40;100304.00;;;;10090931;28;20261;-78
2023/08/25 11:44:45;;;;;;;59.60;41.25;;;;;23.30;100293.00;;;;10070574;28;20213;-77
2023/08/25 11:49:50;;;;;;;60.47;42.45;;;;;23.30;100303.00;;;;10083436;28;20294;-77
2023/08/25 11:54:52;;;;;;;51.53;38.83;;;;;23.10;100292.00;;;;10106593;28;20211;-77
2023/08/25 11:59:56;;;;;;;51.08;37.55;;;;;23.40;100303.00;;;;10069225;28;20256;-78
2023/08/25 12:05:03;;;;;;;48.70;35.58;;;;;24.00;100297.00;;;;10072035;28;20609;-78
2023/08/25 12:10:07;;;;;;;50.35;34.22;;;;;24.20;100306.00;;;;10083181;28;20229;-78
2023/08/25 12:15:08;;;;;;;47.13;34.38;;;;;24.20;100302.00;;;;10068718;28;20930;-78
2023/08/25 12:20:15;;;;;;;46.60;33.53;;;;;23.80;100310.00;;;;10092099;28;20225;-79
2023/08/25 12:25:17;;;;;;;50.08;35.25;;;;;23.70;100297.00;;;;10067885;28;20230;-78
2023/08/25 12:30:18;;;;;;;50.95;37.17;;;;;24.30;100302.00;;;;10066983;28;20206;-78
2023/08/25 12:35:22;;;;;;;52.38;36.55;;;;;25.40;100290.00;;;;10090340;28;20217;-78
2023/08/25 12:40:24;;;;;;;51.83;37.42;;;;;26.20;100290.00;;;;10068111;28;20226;-78
2023/08/25 12:45:26;;;;;;;47.17;35.08;;;;;26.30;100307.00;;;;10068089;28;20680;-78
2023/08/25 12:50:30;;;;;;;37.75;27.85;;;;;26.30;100309.00;;;;10082368;28;20496;-77
2023/08/25 12:55:32;;;;;;;36.90;27.23;;;;;26.20;100307.00;;;;10061455;28;20499;-78
2023/08/25 13:00:34;;;;;;;37.10;29.25;;;;;26.20;100305.00;;;;10092238;28;21795;-78
2023/08/25 13:05:36;;;;;;;34.05;29.38;;;;;26.20;100322.00;;;;10096613;28;20217;-77
2023/08/25 13:10:37;;;;;;;32.63;27.42;;;;;25.40;100305.00;;;;10073831;28;20648;-78
2023/08/25 13:15:38;;;;;;;46.47;30.48;;;;;25.10;100311.00;;;;10113089;28;20228;-78
2023/08/25 13:20:39;;;;;;;35.67;28.58;;;;;25.00;100309.00;;;;10077176;28;20365;-78
2023/08/25 13:25:41;;;;;;;35.53;28.80;;;;;24.70;100314.00;;;;10065096;28;20346;-77
2023/08/25 13:30:42;;;;;;;33.53;27.92;;;;;23.70;100319.00;;;;10098401;28;20508;-77
2023/08/25 13:35:44;;;;;;;35.85;26.15;;;;;23.00;100331.00;;;;10085528;28;20218;-78
2023/08/25 13:40:45;;;;;;;32.03;28.00;;;;;23.30;100316.00;;;;10086750;28;20825;-77
2023/08/25 13:45:46;;;;;;;32.50;26.55;;;;;24.30;100299.00;;;;10085413;28;20214;-78
2023/08/25 13:50:49;;;;;;;35.45;27.42;;;;;24.80;100290.00;;;;10086269;28;20208;-79
2023/08/25 13:55:50;;;;;;;34.28;27.08;;;;;25.30;100287.00;;;;10059484;28;20935;-78
2023/08/25 14:00:52;;;;;;;35.47;28.60;;;;;25.60;100296.00;;;;10096619;28;20433;-78
2023/08/25 14:05:55;;;;;;;37.67;29.25;;;;;25.70;100299.00;;;;10091805;28;21382;-77
2023/08/25 14:11:02;;;;;;;35.00;29.55;;;;;25.40;100307.00;;;;10092433;28;20221;-78
2023/08/25 14:16:04;;;;;;;42.05;32.67;;;;;24.80;100309.00;;;;10056398;28;20206;-78
2023/08/25 14:21:05;;;;;;;43.28;32.15;;;;;24.20;100319.00;;;;10086819;28;20830;-78
2023/08/25 14:26:07;;;;;;;43.58;33.50;;;;;24.40;100317.00;;;;10076370;28;20214;-78
2023/08/25 14:31:08;;;;;;;43.22;34.38;;;;;24.60;100316.00;;;;10092467;28;20206;-79
2023/08/25 14:36:09;;;;;;;40.67;31.83;;;;;24.90;100317.00;;;;10084675;28;20282;-78
2023/08/25 14:41:11;;;;;;;40.88;31.42;;;;;25.10;100322.00;;;;10097936;28;20596;-79
2023/08/25 14:46:13;;;;;;;37.88;29.60;;;;;24.70;100320.00;;;;10109330;28;20206;-79
2023/08/25 14:51:15;;;;;;;42.08;30.77;;;;;24.00;100325.00;;;;10098409;28;21976;-78
2023/08/25 14:56:18;;;;;;;38.88;28.25;;;;;23.80;100319.00;;;;10090774;28;20593;-78
2023/08/25 15:01:19;;;;;;;34.78;27.15;;;;;23.80;100321.00;;;;10074730;28;20238;-79
2023/08/25 15:06:20;;;;;;;30.30;24.40;;;;;23.90;100308.00;;;;10091021;28;20469;-79
2023/08/25 15:11:21;;;;;;;27.92;22.48;;;;;24.80;100308.00;;;;10087095;28;20213;-78
2023/08/25 15:16:23;;;;;;;23.73;20.15;;;;;25.30;100297.00;;;;10095795;28;20252;-79
2023/08/25 15:21:24;;;;;;;26.50;21.33;;;;;25.30;100287.00;;;;10068754;28;20289;-79
2023/08/25 15:26:25;;;;;;;26.45;20.70;;;;;25.30;100296.00;;;;10087410;28;20245;-79
2023/08/25 15:31:27;;;;;;;23.80;21.35;;;;;25.60;100303.00;;;;10088642;28;20594;-78
2023/08/25 15:36:28;;;;;;;24.98;22.33;;;;;25.20;100300.00;;;;10072063;28;20878;-79
2023/08/25 15:41:29;;;;;;;24.17;21.58;;;;;24.10;100289.00;;;;10065742;28;20593;-78
2023/08/25 15:46:30;;;;;;;23.65;20.15;;;;;23.50;100289.00;;;;10091554;28;20202;-78
2023/08/25 15:51:32;;;;;;;26.65;19.35;;;;;23.20;100284.00;;;;10090819;28;20340;-78
2023/08/25 15:56:34;;;;;;;22.10;18.25;;;;;22.60;100307.00;;;;10089159;28;20210;-78
2023/08/25 16:01:36;;;;;;;24.50;21.00;;;;;22.20;100304.00;;;;10068594;28;21439;-78
2023/08/25 16:06:37;;;;;;;31.13;24.65;;;;;21.40;100304.00;;;;10065308;28;21535;-78
2023/08/25 16:11:39;;;;;;;29.83;23.38;;;;;20.90;100324.00;;;;10092091;28;20221;-78
2023/08/25 16:16:40;;;;;;;34.70;26.52;;;;;20.70;100316.00;;;;10083610;28;20218;-78
2023/08/25 16:21:42;;;;;;;33.28;27.20;;;;;20.60;100307.00;;;;10064984;28;20565;-78
2023/08/25 16:26:43;;;;;;;35.47;28.08;;;;;20.30;100309.00;;;;10080591;28;20332;-78
2023/08/25 16:31:44;;;;;;;33.17;25.08;;;;;20.10;100310.00;;;;10061118;28;20206;-77
2023/08/25 16:36:46;;;;;;;35.35;25.67;;;;;20.00;100322.00;;;;10098830;28;20336;-78
2023/08/25 16:41:47;;;;;;;32.58;24.80;;;;;19.90;100314.00;;;;10090534;28;20728;-78
2023/08/25 16:46:48;;;;;;;32.40;25.20;;;;;19.80;100313.00;;;;10095431;28;20214;-77
2023/08/25 16:51:50;;;;;;;31.77;23.95;;;;;19.80;100314.00;;;;10098677;28;20241;-77
2023/08/25 16:56:51;;;;;;;40.95;28.80;;;;;19.60;100323.00;;;;10094563;28;20226;-78
2023/08/25 17:01:52;;;;;;;39.17;28.75;;;;;19.20;100308.00;;;;10074491;28;20834;-77
2023/08/25 17:06:54;;;;;;;40.50;30.25;;;;;19.00;100323.00;;;;10066886;28;20663;-77
2023/08/25 17:11:55;;;;;;;44.13;34.35;;;;;19.00;100331.00;;;;10097151;28;21627;-77
2023/08/25 17:16:56;;;;;;;51.78;36.67;;;;;19.10;100322.00;;;;10091623;28;20234;-78
2023/08/25 17:21:57;;;;;;;49.85;35.33;;;;;19.10;100309.00;;;;10066764;28;20227;-77
2023/08/25 17:26:59;;;;;;;45.22;35.45;;;;;19.10;100317.00;;;;10096701;28;20295;-78
2023/08/25 17:32:00;;;;;;;56.97;36.95;;;;;19.20;100314.00;;;;10071056;28;20337;-77
2023/08/25 17:37:03;;;;;;;51.03;37.30;;;;;19.30;100311.00;;;;10070722;28;20305;-77
2023/08/25 17:42:04;;;;;;;53.53;38.17;;;;;19.40;100318.00;;;;10052234;28;20795;-78
2023/08/25 17:47:05;;;;;;;50.90;37.50;;;;;19.60;100302.00;;;;10069031;28;21301;-77
2023/08/25 17:52:07;;;;;;;47.83;37.05;;;;;19.50;100312.00;;;;10088984;28;20457;-77
2023/08/25 17:57:08;;;;;;;47.10;35.90;;;;;19.40;100318.00;;;;10066798;28;20222;-76
2023/08/25 18:02:10;;;;;;;38.97;32.60;;;;;19.30;100333.00;;;;10067087;28;20317;-77
2023/08/25 18:07:12;;;;;;;42.10;31.60;;;;;19.10;100340.00;;;;10092261;28;20353;-77
2023/08/25 18:12:13;;;;;;;40.25;29.88;;;;;18.90;100347.00;;;;10071523;28;20211;-77
2023/08/25 18:17:15;;;;;;;38.88;29.05;;;;;18.80;100358.00;;;;10074353;28;20566;-78
2023/08/25 18:22:17;;;;;;;43.22;29.95;;;;;18.70;100352.00;;;;10094315;28;20240;-77
2023/08/25 18:27:18;;;;;;;30.15;26.23;;;;;18.70;100359.00;;;;10085950;28;20218;-77
2023/08/25 18:32:19;;;;;;;33.72;23.92;;;;;18.50;100375.00;;;;10067100;28;20221;-77
2023/08/25 18:37:20;;;;;;;29.20;21.23;;;;;18.30;100382.00;;;;10099943;28;20293;-77
2023/08/25 18:42:22;;;;;;;28.27;20.80;;;;;18.00;100380.00;;;;10093405;28;20558;-77
2023/08/25 18:47:23;;;;;;;26.17;20.70;;;;;17.80;100387.00;;;;10088635;28;20228;-78
2023/08/25 18:52:25;;;;;;;30.80;22.48;;;;;17.70;100390.00;;;;10064004;28;20286;-77
2023/08/25 18:57:27;;;;;;;36.40;24.17;;;;;17.60;100403.00;;;;10085311;28;20220;-78
2023/08/25 19:02:28;;;;;;;31.38;25.50;;;;;17.60;100397.00;;;;10083393;28;20230;-77
2023/08/25 19:07:31;;;;;;;38.22;24.58;;;;;17.50;100402.00;;;;10092357;28;20233;-77
2023/08/25 19:12:33;;;;;;;33.75;24.67;;;;;17.50;100406.00;;;;10091535;28;20756;-77
2023/08/25 19:17:34;;;;;;;32.92;24.83;;;;;17.40;100416.00;;;;10090463;28;20662;-77
2023/08/25 19:22:37;;;;;;;43.80;25.30;;;;;17.30;100411.00;;;;10107102;28;20587;-77
2023/08/25 19:27:39;;;;;;;41.47;28.00;;;;;17.40;100417.00;;;;10084904;28;20266;-77
2023/08/25 19:32:40;;;;;;;46.05;29.05;;;;;17.40;100423.00;;;;10066610;28;20245;-77
2023/08/25 19:37:42;;;;;;;43.05;28.98;;;;;17.50;100433.00;;;;10081116;28;20222;-77
2023/08/25 19:42:46;;;;;;;36.75;26.70;;;;;17.50;100435.00;;;;10062527;28;20731;-76
2023/08/25 19:47:47;;;;;;;39.15;27.60;;;;;17.50;100435.00;;;;10060258;28;20279;-77
2023/08/25 19:52:48;;;;;;;35.75;26.15;;;;;17.50;100435.00;;;;10067285;28;20302;-77
2023/08/25 19:57:49;;;;;;;40.78;26.67;;;;;17.50;100439.00;;;;10095933;28;20273;-77
2023/08/25 20:02:51;;;;;;;37.72;26.67;;;;;17.50;100438.00;;;;10083978;28;20210;-77
2023/08/25 20:07:53;;;;;;;38.42;25.75;;;;;17.50;100455.00;;;;10090180;28;20201;-77
2023/08/25 20:12:55;;;;;;;42.58;26.77;;;;;17.50;100460.00;;;;10068095;28;20286;-77
2023/08/25 20:17:57;;;;;;;45.53;27.17;;;;;17.50;100455.00;;;;10070219;28;20237;-77
2023/08/25 20:22:59;;;;;;;45.50;27.77;;;;;17.50;100463.00;;;;10068899;28;20222;-77
2023/08/25 20:28:01;;;;;;;38.17;28.17;;;;;17.50;100470.00;;;;10063851;28;20286;-77
2023/08/25 20:33:02;;;;;;;43.15;28.08;;;;;17.50;100463.00;;;;10063400;28;20447;-76
2023/08/25 20:38:04;;;;;;;40.03;26.25;;;;;17.50;100463.00;;;;10091162;28;21249;-77
2023/08/25 20:43:06;;;;;;;33.28;23.98;;;;;17.40;100468.00;;;;10064379;28;20232;-77
2023/08/25 20:48:07;;;;;;;26.83;20.65;;;;;17.10;100479.00;;;;10082371;28;20647;-77
2023/08/25 20:53:09;;;;;;;27.63;19.42;;;;;16.80;100489.00;;;;10065944;28;20223;-77
2023/08/25 20:58:10;;;;;;;34.20;20.77;;;;;16.60;100489.00;;;;10084285;28;20241;-77
2023/08/25 21:03:12;;;;;;;35.80;19.40;;;;;16.50;100490.00;;;;10090303;28;20818;-77
2023/08/25 21:08:13;;;;;;;21.90;14.90;;;;;16.30;100496.00;;;;10084809;28;20547;-76
2023/08/25 21:13:15;;;;;;;23.63;14.77;;;;;16.20;100500.00;;;;10086158;28;21458;-77
2023/08/25 21:18:17;;;;;;;17.08;12.60;;;;;16.10;100495.00;;;;10087787;28;20214;-77
2023/08/25 21:23:21;;;;;;;15.13;11.57;;;;;16.00;100510.00;;;;10090346;28;20361;-77
2023/08/25 21:28:24;;;;;;;16.98;10.45;;;;;16.00;100508.00;;;;10114589;28;20214;-76
2023/08/25 21:33:27;;;;;;;15.07;8.98;;;;;15.80;100499.00;;;;10109775;28;20321;-77
2023/08/25 21:38:30;;;;;;;13.20;9.20;;;;;15.50;100506.00;;;;10092390;28;20214;-77
2023/08/25 21:43:31;;;;;;;10.73;6.32;;;;;15.40;100512.00;;;;10073467;28;20823;-77
2023/08/25 21:48:32;;;;;;;14.60;7.65;;;;;15.30;100512.00;;;;10088249;28;20210;-77
2023/08/25 21:53:33;;;;;;;15.30;6.90;;;;;15.30;100517.00;;;;10084627;28;20218;-77
2023/08/25 21:58:35;;;;;;;8.07;5.45;;;;;15.10;100514.00;;;;10071475;28;20477;-76
2023/08/25 22:03:37;;;;;;;6.60;3.75;;;;;14.80;100523.00;;;;10071675;28;20290;-77
2023/08/25 22:08:40;;;;;;;6.50;3.15;;;;;14.60;100523.00;;;;10097321;28;20250;-77
2023/08/25 22:13:42;;;;;;;6.13;3.40;;;;;14.50;100523.00;;;;10089151;28;20215;-77
2023/08/25 22:18:43;;;;;;;9.13;3.42;;;;;14.30;100530.00;;;;10049961;28;20273;-76
2023/08/25 22:23:45;;;;;;;9.43;3.45;;;;;14.10;100536.00;;;;10095386;28;20210;-77
2023/08/25 22:28:46;;;;;;;7.45;3.90;;;;;14.00;100530.00;;;;10072484;28;20638;-77
2023/08/25 22:33:48;;;;;;;6.30;3.30;;;;;13.90;100541.00;;;;10057487;28;20950;-77
2023/08/25 22:38:52;;;;;;;8.68;3.90;;;;;13.80;100539.00;;;;10094647;28;20266;-77
2023/08/25 22:43:54;;;;;;;8.55;3.58;;;;;13.70;100539.00;;;;10084009;28;21293;-76
2023/08/25 22:48:56;;;;;;;7.82;3.30;;;;;13.70;100533.00;;;;10098756;28;20218;-77
2023/08/25 22:53:57;;;;;;;9.55;3.40;;;;;13.60;100531.00;;;;10087200;28;21755;-77
2023/08/25 22:58:59;;;;;;;7.13;2.95;;;;;13.60;100526.00;;;;10096335;28;20965;-78
2023/08/25 23:04:00;;;;;;;8.18;3.35;;;;;13.60;100541.00;;;;10071648;28;20218;-77
2023/08/25 23:09:01;;;;;;;7.75;3.17;;;;;13.60;100536.00;;;;10090467;28;20289;-76
2023/08/25 23:14:03;;;;;;;5.70;2.63;;;;;13.50;100528.00;;;;10084186;28;21728;-77
2023/08/25 23:19:05;;;;;;;7.10;3.33;;;;;13.40;100545.00;;;;10085070;28;20211;-77
2023/08/25 23:24:06;;;;;;;8.43;2.92;;;;;13.30;100540.00;;;;10073893;28;21308;-77
2023/08/25 23:29:07;;;;;;;5.80;3.60;;;;;13.30;100536.00;;;;10091607;28;20206;-77
2023/08/25 23:34:09;;;;;;;7.70;2.90;;;;;13.30;100533.00;;;;10092350;28;20891;-77
2023/08/25 23:39:11;;;;;;;7.37;3.30;;;;;13.30;100529.00;;;;10073437;28;20264;-77
2023/08/25 23:44:12;;;;;;;5.17;2.93;;;;;13.20;100533.00;;;;10054529;28;20677;-77
2023/08/25 23:49:13;;;;;;;7.07;3.00;;;;;13.20;100532.00;;;;10085945;28;21496;-77
2023/08/25 23:54:17;;;;;;;7.87;2.80;;;;;13.20;100530.00;;;;10058435;28;20904;-77
2023/08/25 23:59:18;;;;;;;6.40;2.27;;;;;13.10;100531.00;;;;10069717;28;20907;-78
